PWSweather.com
Personal Weather Stations
Station Observations
IMAZOWIE6
WarszawaPL

WarszawaPL

Lat: 52.27957, Lon: 21.05489

Elevation: 100

Station Type: WS1080

http://stacjapogody.waw.pl/

High Low Average
Temperature 76.1°F24.5°C 49.3°F9.6°C 63.4°F17.4°C
Dew Point -165.2°F-109.6°C -167.9°F-111.1°C -166.5°F-110.3°C
Winds Calm Calm Calm Calm Calm NCalm N
Wind Gusts 1.4 mph2.3 kmh -- --
Humidity - - -
Pressure 29.61 in1002.7 mb 29.49 in998.6 mb -
Precipitation 0.00 in0.0 mm - -
Hour Temp Dew Point Humidity Winds Wind Gusts Pressure Precip Precip Rate Daily Precip Total
12:01 AM 55.6°F13.1°C -167.2°F-110.7°C - Calm Calm -- 29.54 in1000.3 mb 0.00 in0.0 mm 0.00 in0.0 mm 0.00 in0.0 mm
12:16 AM 54.9°F12.7°C -167.3°F-110.7°C - Calm Calm -- 29.54 in1000.3 mb 0.00 in0.0 mm 0.00 in0.0 mm 0.00 in0.0 mm
12:31 AM 54.7°F12.6°C -167.3°F-110.7°C - Calm Calm -- 29.54 in1000.3 mb 0.00 in0.0 mm 0.00 in0.0 mm 0.00 in0.0 mm
12:46 AM 54.1°F12.3°C -167.4°F-110.8°C - Calm Calm -- 29.55 in1000.7 mb 0.00 in0.0 mm 0.00 in0.0 mm 0.00 in0.0 mm
01:01 AM 53.6°F12.0°C -167.4°F-110.8°C - Calm Calm -- 29.54 in1000.3 mb 0.00 in0.0 mm 0.00 in0.0 mm 0.00 in0.0 mm
01:16 AM 53.2°F11.8°C -167.5°F-110.8°C - Calm Calm -- 29.54 in1000.3 mb 0.00 in0.0 mm 0.00 in0.0 mm 0.00 in0.0 mm
01:31 AM 52.9°F11.6°C -167.5°F-110.8°C - Calm Calm -- 29.55 in1000.7 mb 0.00 in0.0 mm 0.00 in0.0 mm 0.00 in0.0 mm
01:46 AM 52.7°F11.5°C -167.5°F-110.8°C - Calm Calm -- 29.55 in1000.7 mb 0.00 in0.0 mm 0.00 in0.0 mm 0.00 in0.0 mm
02:01 AM 52.3°F11.3°C -167.6°F-110.9°C - Calm Calm -- 29.54 in1000.3 mb 0.00 in0.0 mm 0.00 in0.0 mm 0.00 in0.0 mm
02:16 AM 52.2°F11.2°C -167.6°F-110.9°C - Calm Calm -- 29.54 in1000.3 mb 0.00 in0.0 mm 0.00 in0.0 mm 0.00 in0.0 mm
02:31 AM 52.0°F11.1°C -167.6°F-110.9°C - Calm Calm -- 29.54 in1000.3 mb 0.00 in0.0 mm 0.00 in0.0 mm 0.00 in0.0 mm
02:46 AM 51.8°F11.0°C -167.6°F-110.9°C - Calm Calm -- 29.54 in1000.3 mb 0.00 in0.0 mm 0.00 in0.0 mm 0.00 in0.0 mm
03:01 AM 51.6°F10.9°C -167.6°F-110.9°C - Calm Calm -- 29.54 in1000.3 mb 0.00 in0.0 mm 0.00 in0.0 mm 0.00 in0.0 mm
03:16 AM 51.1°F10.6°C -167.7°F-110.9°C - Calm Calm -- 29.53 in1000.0 mb 0.00 in0.0 mm 0.00 in0.0 mm 0.00 in0.0 mm
03:31 AM 50.9°F10.5°C -167.7°F-110.9°C - Calm Calm -- 29.53 in1000.0 mb 0.00 in0.0 mm 0.00 in0.0 mm 0.00 in0.0 mm
03:46 AM 50.9°F10.5°C -167.7°F-110.9°C - Calm Calm -- 29.53 in1000.0 mb 0.00 in0.0 mm 0.00 in0.0 mm 0.00 in0.0 mm
04:01 AM 50.7°F10.4°C -167.7°F-110.9°C - Calm Calm -- 29.53 in1000.0 mb 0.00 in0.0 mm 0.00 in0.0 mm 0.00 in0.0 mm
04:17 AM 50.4°F10.2°C -167.8°F-111.0°C - Calm Calm -- 29.53 in1000.0 mb 0.00 in0.0 mm 0.00 in0.0 mm 0.00 in0.0 mm
04:33 AM 49.5°F9.7°C -167.9°F-111.1°C - Calm Calm -- 29.53 in1000.0 mb 0.00 in0.0 mm 0.00 in0.0 mm 0.00 in0.0 mm
04:49 AM 49.3°F9.6°C -167.9°F-111.1°C - Calm Calm -- 29.54 in1000.3 mb 0.00 in0.0 mm 0.00 in0.0 mm 0.00 in0.0 mm
05:05 AM 49.3°F9.6°C -167.9°F-111.1°C - Calm Calm -- 29.54 in1000.3 mb 0.00 in0.0 mm 0.00 in0.0 mm 0.00 in0.0 mm
05:21 AM 49.6°F9.8°C -167.8°F-111.0°C - Calm Calm -- 29.55 in1000.7 mb 0.00 in0.0 mm 0.00 in0.0 mm 0.00 in0.0 mm
05:31 AM 50.5°F10.3°C -167.7°F-110.9°C - Calm Calm -- 29.55 in1000.7 mb 0.00 in0.0 mm 0.00 in0.0 mm 0.00 in0.0 mm
05:47 AM 51.6°F10.9°C -167.6°F-110.9°C - Calm Calm -- 29.55 in1000.7 mb 0.00 in0.0 mm 0.00 in0.0 mm 0.00 in0.0 mm
06:03 AM 52.7°F11.5°C -167.5°F-110.8°C - Calm Calm -- 29.55 in1000.7 mb 0.00 in0.0 mm 0.00 in0.0 mm 0.00 in0.0 mm
06:19 AM 54.1°F12.3°C -167.4°F-110.8°C - Calm Calm -- 29.55 in1000.7 mb 0.00 in0.0 mm 0.00 in0.0 mm 0.00 in0.0 mm
06:35 AM 55.8°F13.2°C -167.2°F-110.7°C - Calm Calm 0.6 mph1.0 kmh 29.55 in1000.7 mb 0.00 in0.0 mm 0.00 in0.0 mm 0.00 in0.0 mm
06:46 AM 56.5°F13.6°C -167.2°F-110.7°C - Calm Calm -- 29.55 in1000.7 mb 0.00 in0.0 mm 0.00 in0.0 mm 0.00 in0.0 mm
07:02 AM 57.4°F14.1°C -167.1°F-110.6°C - Calm Calm -- 29.55 in1000.7 mb 0.00 in0.0 mm 0.00 in0.0 mm 0.00 in0.0 mm
07:18 AM 57.7°F14.3°C -167.0°F-110.6°C - Calm Calm -- 29.55 in1000.7 mb 0.00 in0.0 mm 0.00 in0.0 mm 0.00 in0.0 mm
07:34 AM 58.5°F14.7°C -167.0°F-110.6°C - Calm Calm -- 29.55 in1000.7 mb 0.00 in0.0 mm 0.00 in0.0 mm 0.00 in0.0 mm
07:50 AM 60.1°F15.6°C -166.8°F-110.4°C - Calm Calm -- 29.55 in1000.7 mb 0.00 in0.0 mm 0.00 in0.0 mm 0.00 in0.0 mm
08:01 AM 60.4°F15.8°C -166.8°F-110.4°C - Calm Calm 0.6 mph1.0 kmh 29.55 in1000.7 mb 0.00 in0.0 mm 0.00 in0.0 mm 0.00 in0.0 mm
08:17 AM 62.2°F16.8°C -166.6°F-110.3°C - Calm Calm -- 29.55 in1000.7 mb 0.00 in0.0 mm 0.00 in0.0 mm 0.00 in0.0 mm
08:33 AM 63.3°F17.4°C -166.5°F-110.3°C - Calm Calm -- 29.55 in1000.7 mb 0.00 in0.0 mm 0.00 in0.0 mm 0.00 in0.0 mm
08:49 AM 64.2°F17.9°C -166.4°F-110.2°C - Calm Calm -- 29.55 in1000.7 mb 0.00 in0.0 mm 0.00 in0.0 mm 0.00 in0.0 mm
09:05 AM 63.9°F17.7°C -166.4°F-110.2°C - Calm Calm -- 29.55 in1000.7 mb 0.00 in0.0 mm 0.00 in0.0 mm 0.00 in0.0 mm
09:20 AM 65.3°F18.5°C -166.3°F-110.2°C - Calm Calm -- 29.55 in1000.7 mb 0.00 in0.0 mm 0.00 in0.0 mm 0.00 in0.0 mm
09:35 AM 66.6°F19.2°C -166.1°F-110.1°C - Calm Calm 1.4 mph2.3 kmh 29.55 in1000.7 mb 0.00 in0.0 mm 0.00 in0.0 mm 0.00 in0.0 mm
09:50 AM 67.5°F19.7°C -166.1°F-110.1°C - Calm Calm -- 29.54 in1000.3 mb 0.00 in0.0 mm 0.00 in0.0 mm 0.00 in0.0 mm
10:05 AM 67.5°F19.7°C -166.1°F-110.1°C - Calm Calm -- 29.54 in1000.3 mb 0.00 in0.0 mm 0.00 in0.0 mm 0.00 in0.0 mm
10:20 AM 69.1°F20.6°C -165.9°F-109.9°C - Calm Calm 1.4 mph2.3 kmh 29.54 in1000.3 mb 0.00 in0.0 mm 0.00 in0.0 mm 0.00 in0.0 mm
10:35 AM 69.8°F21.0°C -165.8°F-109.9°C - Calm Calm -- 29.53 in1000.0 mb 0.00 in0.0 mm 0.00 in0.0 mm 0.00 in0.0 mm
10:50 AM 69.3°F20.7°C -165.9°F-109.9°C - Calm Calm -- 29.53 in1000.0 mb 0.00 in0.0 mm 0.00 in0.0 mm 0.00 in0.0 mm
11:05 AM 69.4°F20.8°C -165.9°F-109.9°C - Calm Calm -- 29.53 in1000.0 mb 0.00 in0.0 mm 0.00 in0.0 mm 0.00 in0.0 mm
11:20 AM 71.1°F21.7°C -165.7°F-109.8°C - Calm Calm 0.6 mph1.0 kmh 29.52 in999.7 mb 0.00 in0.0 mm 0.00 in0.0 mm 0.00 in0.0 mm
11:35 AM 71.4°F21.9°C -165.7°F-109.8°C - Calm Calm 1.4 mph2.3 kmh 29.52 in999.7 mb 0.00 in0.0 mm 0.00 in0.0 mm 0.00 in0.0 mm
11:50 AM 72.1°F22.3°C -165.6°F-109.8°C - Calm Calm 1.4 mph2.3 kmh 29.52 in999.7 mb 0.00 in0.0 mm 0.00 in0.0 mm 0.00 in0.0 mm
12:05 PM 72.9°F22.7°C -165.5°F-109.7°C - Calm Calm 0.6 mph1.0 kmh 29.51 in999.3 mb 0.00 in0.0 mm 0.00 in0.0 mm 0.00 in0.0 mm
12:20 PM 73.6°F23.1°C -165.4°F-109.7°C - Calm Calm -- 29.51 in999.3 mb 0.00 in0.0 mm 0.00 in0.0 mm 0.00 in0.0 mm
12:35 PM 73.9°F23.3°C -165.4°F-109.7°C - Calm Calm 1.4 mph2.3 kmh 29.51 in999.3 mb 0.00 in0.0 mm 0.00 in0.0 mm 0.00 in0.0 mm
12:50 PM 74.5°F23.6°C -165.4°F-109.7°C - Calm Calm -- 29.50 in999.0 mb 0.00 in0.0 mm 0.00 in0.0 mm 0.00 in0.0 mm
01:05 PM 74.5°F23.6°C -165.4°F-109.7°C - Calm Calm -- 29.51 in999.3 mb 0.00 in0.0 mm 0.00 in0.0 mm 0.00 in0.0 mm
01:20 PM 75.0°F23.9°C -165.3°F-109.6°C - Calm Calm 0.6 mph1.0 kmh 29.50 in999.0 mb 0.00 in0.0 mm 0.00 in0.0 mm 0.00 in0.0 mm
01:35 PM 75.0°F23.9°C -165.3°F-109.6°C - Calm Calm -- 29.50 in999.0 mb 0.00 in0.0 mm 0.00 in0.0 mm 0.00 in0.0 mm
01:50 PM 74.8°F23.8°C -165.3°F-109.6°C - Calm Calm 0.6 mph1.0 kmh 29.50 in999.0 mb 0.00 in0.0 mm 0.00 in0.0 mm 0.00 in0.0 mm
02:01 PM 74.8°F23.8°C -165.3°F-109.6°C - Calm Calm 0.6 mph1.0 kmh 29.50 in999.0 mb 0.00 in0.0 mm 0.00 in0.0 mm 0.00 in0.0 mm
02:16 PM 74.8°F23.8°C -165.3°F-109.6°C - Calm Calm 0.6 mph1.0 kmh 29.50 in999.0 mb 0.00 in0.0 mm 0.00 in0.0 mm 0.00 in0.0 mm
02:35 PM 76.1°F24.5°C -165.2°F-109.6°C - Calm Calm 0.6 mph1.0 kmh 29.49 in998.6 mb 0.00 in0.0 mm 0.00 in0.0 mm 0.00 in0.0 mm
02:50 PM 76.1°F24.5°C -165.2°F-109.6°C - Calm Calm 0.6 mph1.0 kmh 29.49 in998.6 mb 0.00 in0.0 mm 0.00 in0.0 mm 0.00 in0.0 mm
03:05 PM 75.6°F24.2°C -165.2°F-109.6°C - Calm Calm -- 29.49 in998.6 mb 0.00 in0.0 mm 0.00 in0.0 mm 0.00 in0.0 mm
03:16 PM 75.6°F24.2°C -165.2°F-109.6°C - Calm Calm -- 29.49 in998.6 mb 0.00 in0.0 mm 0.00 in0.0 mm 0.00 in0.0 mm
03:32 PM 75.6°F24.2°C -165.2°F-109.6°C - Calm Calm -- 29.49 in998.6 mb 0.00 in0.0 mm 0.00 in0.0 mm 0.00 in0.0 mm
03:50 PM 75.6°F24.2°C -165.2°F-109.6°C - Calm Calm -- 29.49 in998.6 mb 0.00 in0.0 mm 0.00 in0.0 mm 0.00 in0.0 mm
04:02 PM 75.6°F24.2°C -165.2°F-109.6°C - Calm Calm -- 29.49 in998.6 mb 0.00 in0.0 mm 0.00 in0.0 mm 0.00 in0.0 mm
04:20 PM 75.6°F24.2°C -165.2°F-109.6°C - Calm Calm -- 29.49 in998.6 mb 0.00 in0.0 mm 0.00 in0.0 mm 0.00 in0.0 mm
04:35 PM 75.0°F23.9°C -165.3°F-109.6°C - Calm Calm -- 29.49 in998.6 mb 0.00 in0.0 mm 0.00 in0.0 mm 0.00 in0.0 mm
04:48 PM 75.0°F23.9°C -165.3°F-109.6°C - Calm Calm -- 29.49 in998.6 mb 0.00 in0.0 mm 0.00 in0.0 mm 0.00 in0.0 mm
05:05 PM 75.0°F23.9°C -165.3°F-109.6°C - Calm Calm -- 29.49 in998.6 mb 0.00 in0.0 mm 0.00 in0.0 mm 0.00 in0.0 mm
05:20 PM 75.0°F23.9°C -165.3°F-109.6°C - Calm Calm -- 29.49 in998.6 mb 0.00 in0.0 mm 0.00 in0.0 mm 0.00 in0.0 mm
05:35 PM 75.0°F23.9°C -165.3°F-109.6°C - Calm Calm -- 29.49 in998.6 mb 0.00 in0.0 mm 0.00 in0.0 mm 0.00 in0.0 mm
05:50 PM 75.0°F23.9°C -165.3°F-109.6°C - Calm Calm -- 29.49 in998.6 mb 0.00 in0.0 mm 0.00 in0.0 mm 0.00 in0.0 mm
06:05 PM 73.4°F23.0°C -165.5°F-109.7°C - Calm Calm -- 29.50 in999.0 mb 0.00 in0.0 mm 0.00 in0.0 mm 0.00 in0.0 mm
06:16 PM 73.4°F23.0°C -165.5°F-109.7°C - Calm Calm -- 29.50 in999.0 mb 0.00 in0.0 mm 0.00 in0.0 mm 0.00 in0.0 mm
06:35 PM 72.9°F22.7°C -165.5°F-109.7°C - Calm Calm -- 29.52 in999.7 mb 0.00 in0.0 mm 0.00 in0.0 mm 0.00 in0.0 mm
06:48 PM 72.9°F22.7°C -165.5°F-109.7°C - Calm Calm -- 29.52 in999.7 mb 0.00 in0.0 mm 0.00 in0.0 mm 0.00 in0.0 mm
07:05 PM 72.5°F22.5°C -165.6°F-109.8°C - Calm Calm -- 29.54 in1000.3 mb 0.00 in0.0 mm 0.00 in0.0 mm 0.00 in0.0 mm
07:20 PM 67.8°F19.9°C -166.0°F-110.0°C - Calm Calm -- 29.54 in1000.3 mb 0.04 in1.0 mm 0.15 in3.8 mm 0.04 in1.0 mm
07:35 PM 66.4°F19.1°C -166.2°F-110.1°C - Calm Calm -- 29.56 in1001.0 mb 0.04 in1.0 mm 0.00 in0.0 mm 0.04 in1.0 mm
07:50 PM 65.3°F18.5°C -166.3°F-110.2°C - Calm Calm -- 29.57 in1001.4 mb 0.06 in1.5 mm 0.10 in2.5 mm 0.06 in1.5 mm
08:05 PM 64.6°F18.1°C -166.3°F-110.2°C - Calm Calm -- 29.59 in1002.0 mb 0.07 in1.8 mm 0.02 in0.5 mm 0.07 in1.8 mm
08:20 PM 61.2°F16.2°C -166.7°F-110.4°C - Calm Calm -- 29.59 in1002.0 mb 0.05 in1.3 mm 0.00 in0.0 mm 0.07 in1.8 mm
08:35 PM 60.4°F15.8°C -166.8°F-110.4°C - Calm Calm -- 29.59 in1002.0 mb 0.09 in2.3 mm 0.15 in3.8 mm 0.11 in2.8 mm
08:45 PM 60.4°F15.8°C -166.8°F-110.4°C - Calm Calm -- 29.59 in1002.0 mb 0.09 in2.3 mm 0.00 in0.0 mm 0.11 in2.8 mm
09:00 PM 60.4°F15.8°C -166.8°F-110.4°C - Calm Calm -- 29.59 in1002.0 mb 0.09 in2.3 mm 0.00 in0.0 mm 0.11 in2.8 mm
09:20 PM 59.5°F15.3°C -166.8°F-110.4°C - Calm Calm -- 29.57 in1001.4 mb 0.04 in1.0 mm 0.00 in0.0 mm 0.11 in2.8 mm
09:30 PM 59.5°F15.3°C -166.8°F-110.4°C - Calm Calm -- 29.57 in1001.4 mb 0.04 in1.0 mm 0.00 in0.0 mm 0.11 in2.8 mm
09:50 PM 59.4°F15.2°C -166.9°F-110.5°C - Calm Calm -- 29.58 in1001.7 mb 0.05 in1.3 mm 0.04 in1.0 mm 0.12 in3.0 mm
10:05 PM 59.0°F15.0°C -166.9°F-110.5°C - Calm Calm -- 29.59 in1002.0 mb 0.05 in1.3 mm 0.00 in0.0 mm 0.12 in3.0 mm
10:20 PM 58.8°F14.9°C -166.9°F-110.5°C - Calm Calm -- 29.60 in1002.4 mb 0.00 in0.0 mm 0.00 in0.0 mm 0.12 in3.0 mm
10:35 PM 59.0°F15.0°C -166.9°F-110.5°C - Calm Calm -- 29.60 in1002.4 mb 0.00 in0.0 mm 0.00 in0.0 mm 0.12 in3.0 mm
10:50 PM 58.5°F14.7°C -167.0°F-110.6°C - Calm Calm -- 29.60 in1002.4 mb 0.00 in0.0 mm 0.00 in0.0 mm 0.12 in3.0 mm
11:05 PM 58.5°F14.7°C -167.0°F-110.6°C - Calm Calm -- 29.61 in1002.7 mb 0.00 in0.0 mm 0.00 in0.0 mm 0.12 in3.0 mm
11:20 PM 58.3°F14.6°C -167.0°F-110.6°C - Calm Calm -- 29.61 in1002.7 mb 0.00 in0.0 mm 0.00 in0.0 mm 0.12 in3.0 mm
11:35 PM 58.5°F14.7°C -167.0°F-110.6°C - Calm Calm -- 29.61 in1002.7 mb 0.00 in0.0 mm 0.00 in0.0 mm 0.12 in3.0 mm
11:50 PM 57.7°F14.3°C -167.0°F-110.6°C - Calm Calm -- 29.61 in1002.7 mb 0.00 in0.0 mm 0.00 in0.0 mm 0.12 in3.0 mm